Time;durP1;ratioP1;P1;durP2;ratioP2;P2;SDS_P1;SDS_P2;PMS_P1;PMS_P2;Temp;Humidity;BMP_temperature;BMP_pressure;BME280_temperature;BME280_humidity;BME280_pressure;Samples;Min_cycle;Max_cycle;Signal;HPM_P1;HPM_P2
2021/03/19 00:00:49;;;;;;;14.95;13.50;;;;;;;;;;5108126;28;20176;-42
2021/03/19 00:03:14;;;;;;;18.40;16.03;;;;;;;;;;5109065;28;20182;-42
2021/03/19 00:05:40;;;;;;;24.63;19.90;;;;;;;;;;5108190;28;20191;-42
2021/03/19 00:08:05;;;;;;;21.97;18.97;;;;;;;;;;5108767;28;20274;-42
2021/03/19 00:10:32;;;;;;;20.07;16.50;;;;;;;;;;5108224;28;20177;-42
2021/03/19 00:12:58;;;;;;;18.17;16.07;;;;;;;;;;5108169;28;20165;-41
2021/03/19 00:15:24;;;;;;;18.40;15.73;;;;;;;;;;5108984;28;20593;-41
2021/03/19 00:17:50;;;;;;;18.97;15.67;;;;;;;;;;5108148;28;20682;-42
2021/03/19 00:20:15;;;;;;;16.47;13.80;;;;;;;;;;5108706;28;20656;-41
2021/03/19 00:22:41;;;;;;;20.20;15.87;;;;;;;;;;5108167;28;20178;-41
2021/03/19 00:25:09;;;;;;;21.00;16.07;;;;;;;;;;5108560;28;20172;-41
2021/03/19 00:27:35;;;;;;;20.27;15.73;;;;;;;;;;5110812;28;20200;-41
2021/03/19 00:30:00;;;;;;;19.90;15.63;;;;;;;;;;5112403;28;21144;-41
2021/03/19 00:32:25;;;;;;;25.13;17.53;;;;;;;;;;5112805;28;20165;-41
2021/03/19 00:34:50;;;;;;;17.90;15.30;;;;;;;;;;5112234;28;20196;-41
2021/03/19 00:37:16;;;;;;;19.53;15.70;;;;;;;;;;5112451;28;20181;-41
2021/03/19 00:39:41;;;;;;;22.50;15.90;;;;;;;;;;5112503;28;20190;-41
2021/03/19 00:42:06;;;;;;;16.13;14.07;;;;;;;;;;5112622;28;20699;-41
2021/03/19 00:44:31;;;;;;;15.53;12.27;;;;;;;;;;5111781;28;20176;-41
2021/03/19 00:46:56;;;;;;;16.43;14.10;;;;;;;;;;5112202;28;20213;-42
2021/03/19 00:49:22;;;;;;;16.37;13.97;;;;;;;;;;5112223;28;20287;-42
2021/03/19 00:51:47;;;;;;;18.90;15.00;;;;;;;;;;5111853;28;20176;-42
2021/03/19 00:54:12;;;;;;;18.83;13.47;;;;;;;;;;5112224;28;20226;-42
2021/03/19 00:56:37;;;;;;;15.90;13.60;;;;;;;;;;5111830;28;20204;-41
2021/03/19 00:59:06;;;;;;;14.77;13.27;;;;;;;;;;5111375;28;20183;-40
2021/03/19 01:01:31;;;;;;;14.83;12.87;;;;;;;;;;5111378;28;20185;-40
2021/03/19 01:03:56;;;;;;;14.57;12.90;;;;;;;;;;5112286;28;20653;-40
2021/03/19 01:06:22;;;;;;;16.55;13.32;;;;;;;;;;5111781;28;20627;-41
2021/03/19 01:08:47;;;;;;;18.40;15.17;;;;;;;;;;5111624;28;20540;-41
2021/03/19 01:11:12;;;;;;;14.50;12.93;;;;;;;;;;5111149;28;20173;-41
2021/03/19 01:13:37;;;;;;;16.73;14.10;;;;;;;;;;5111716;28;20178;-40
2021/03/19 01:16:03;;;;;;;14.73;13.13;;;;;;;;;;5111505;28;20632;-41
2021/03/19 01:18:29;;;;;;;13.53;12.13;;;;;;;;;;5110808;28;20185;-41
2021/03/19 01:20:54;;;;;;;16.03;13.60;;;;;;;;;;5111002;28;20186;-40
2021/03/19 01:23:20;;;;;;;15.70;14.07;;;;;;;;;;5112149;28;20579;-40
2021/03/19 01:25:45;;;;;;;14.87;13.20;;;;;;;;;;5111528;28;20738;-41
2021/03/19 01:28:14;;;;;;;17.70;13.90;;;;;;;;;;5111269;28;20215;-41
2021/03/19 01:30:39;;;;;;;14.80;12.63;;;;;;;;;;5111167;28;20677;-41
2021/03/19 01:33:05;;;;;;;13.40;12.00;;;;;;;;;;5112062;28;20623;-41
2021/03/19 01:35:31;;;;;;;14.80;13.30;;;;;;;;;;5110708;28;20217;-41
2021/03/19 01:37:56;;;;;;;15.90;12.23;;;;;;;;;;5109643;28;20178;-41
2021/03/19 01:40:23;;;;;;;16.60;14.82;;;;;;;;;;5110895;28;20638;-41
2021/03/19 01:42:50;;;;;;;16.83;14.03;;;;;;;;;;5111387;28;20195;-41
2021/03/19 01:45:34;;;;;;;17.60;14.50;;;;;;;;;;5111469;28;20957;-41
2021/03/19 01:48:17;;;;;;;14.80;13.00;;;;;;;;;;5110808;28;21208;-41
2021/03/19 01:51:01;;;;;;;15.20;13.60;;;;;;;;;;5110650;28;20605;-41
2021/03/19 01:53:45;;;;;;;16.47;13.10;;;;;;;;;;5103870;28;20628;-40
2021/03/19 01:56:29;;;;;;;16.10;12.73;;;;;;;;;;5111082;28;20710;-41
2021/03/19 01:59:12;;;;;;;14.83;13.27;;;;;;;;;;5110765;27;21159;-41
2021/03/19 02:01:56;;;;;;;20.00;14.40;;;;;;;;;;5109533;28;20613;-41
2021/03/19 02:04:40;;;;;;;14.77;13.23;;;;;;;;;;5110658;28;20671;-42
2021/03/19 02:07:23;;;;;;;14.57;12.73;;;;;;;;;;5110518;27;20647;-41
2021/03/19 02:10:07;;;;;;;14.90;13.30;;;;;;;;;;5110017;28;20641;-41
2021/03/19 02:12:51;;;;;;;14.77;13.27;;;;;;;;;;5110347;28;20603;-40
2021/03/19 02:15:35;;;;;;;15.40;13.73;;;;;;;;;;5110179;28;20599;-42
2021/03/19 02:18:18;;;;;;;24.47;17.13;;;;;;;;;;5110312;28;20622;-42
2021/03/19 02:21:02;;;;;;;19.00;14.97;;;;;;;;;;5109647;28;20604;-40
2021/03/19 02:23:46;;;;;;;18.93;15.70;;;;;;;;;;5110922;28;20697;-41
2021/03/19 02:26:30;;;;;;;16.50;14.67;;;;;;;;;;5109704;28;20638;-41
2021/03/19 02:29:13;;;;;;;19.33;15.50;;;;;;;;;;5108901;28;20618;-41
2021/03/19 02:31:52;;;;;;;22.90;18.00;;;;;;;;;;5109590;28;20696;-42
2021/03/19 02:34:17;;;;;;;27.10;17.87;;;;;;;;;;5109744;28;20598;-42
2021/03/19 02:36:42;;;;;;;30.30;20.40;;;;;;;;;;5110058;28;20613;-42
2021/03/19 02:39:08;;;;;;;26.27;17.80;;;;;;;;;;5110135;28;20260;-41
2021/03/19 02:41:33;;;;;;;33.40;21.17;;;;;;;;;;5109816;28;20211;-42
2021/03/19 02:43:58;;;;;;;25.30;17.50;;;;;;;;;;5110065;28;20629;-42
2021/03/19 02:46:23;;;;;;;38.77;22.27;;;;;;;;;;5109331;28;20188;-42
2021/03/19 02:48:48;;;;;;;21.80;15.27;;;;;;;;;;5107249;28;20181;-43
2021/03/19 02:51:14;;;;;;;24.85;18.23;;;;;;;;;;5105879;28;20808;-41
2021/03/19 02:53:39;;;;;;;23.27;16.73;;;;;;;;;;5110346;27;20653;-42
2021/03/19 02:56:06;;;;;;;24.90;17.50;;;;;;;;;;5110230;27;20254;-42
2021/03/19 02:58:31;;;;;;;27.67;19.10;;;;;;;;;;5107957;27;20181;-42
2021/03/19 03:00:56;;;;;;;31.73;22.03;;;;;;;;;;5110275;28;20588;-42
2021/03/19 03:03:22;;;;;;;23.47;18.30;;;;;;;;;;5109287;27;20229;-43
2021/03/19 03:05:47;;;;;;;39.43;22.80;;;;;;;;;;5109869;27;20189;-42
2021/03/19 03:08:14;;;;;;;28.63;18.80;;;;;;;;;;5123832;27;20171;-43
2021/03/19 03:10:40;;;;;;;30.33;19.77;;;;;;;;;;5109667;28;20179;-42
2021/03/19 03:13:07;;;;;;;29.23;19.30;;;;;;;;;;5108767;28;20681;-42
2021/03/19 03:15:32;;;;;;;29.03;19.20;;;;;;;;;;5109239;28;20180;-43
2021/03/19 03:17:57;;;;;;;26.40;17.77;;;;;;;;;;5109261;28;20586;-41
2021/03/19 03:20:27;;;;;;;26.55;17.90;;;;;;;;;;5109553;28;20191;-42
2021/03/19 03:22:52;;;;;;;31.27;21.10;;;;;;;;;;5106663;28;20187;-42
2021/03/19 03:25:18;;;;;;;24.57;17.57;;;;;;;;;;5109483;28;20603;-41
2021/03/19 03:27:44;;;;;;;38.13;23.23;;;;;;;;;;5108802;28;20205;-42
2021/03/19 03:30:13;;;;;;;32.03;19.97;;;;;;;;;;5108603;28;20180;-40
2021/03/19 03:32:38;;;;;;;22.90;17.87;;;;;;;;;;5108595;28;20187;-46
2021/03/19 03:35:05;;;;;;;23.42;17.23;;;;;;;;;;5108852;27;20613;-42
2021/03/19 03:37:30;;;;;;;23.93;17.50;;;;;;;;;;5109013;28;20925;-42
2021/03/19 03:39:55;;;;;;;25.80;17.10;;;;;;;;;;5108828;28;20624;-42
2021/03/19 03:42:20;;;;;;;23.92;16.65;;;;;;;;;;5108954;28;20172;-42
2021/03/19 03:44:46;;;;;;;27.53;18.87;;;;;;;;;;5109373;28;20176;-42
2021/03/19 03:47:11;;;;;;;22.37;16.90;;;;;;;;;;5108690;28;20206;-42
2021/03/19 03:49:36;;;;;;;23.05;17.45;;;;;;;;;;5108593;28;20180;-41
2021/03/19 03:52:01;;;;;;;20.50;16.77;;;;;;;;;;5113848;27;20260;-42
2021/03/19 03:54:28;;;;;;;22.43;16.30;;;;;;;;;;5108860;27;20224;-41
2021/03/19 03:56:53;;;;;;;21.70;16.33;;;;;;;;;;5108031;28;20172;-42
2021/03/19 03:59:18;;;;;;;24.50;16.77;;;;;;;;;;5108424;28;20661;-42
2021/03/19 04:01:43;;;;;;;22.85;15.82;;;;;;;;;;5107053;28;20262;-41
2021/03/19 04:04:15;;;;;;;19.70;15.77;;;;;;;;;;5108260;28;20171;-41
2021/03/19 04:06:40;;;;;;;19.03;14.97;;;;;;;;;;5108413;28;20260;-42
2021/03/19 04:09:06;;;;;;;20.17;15.75;;;;;;;;;;5108219;28;20594;-42
2021/03/19 04:11:31;;;;;;;22.90;17.27;;;;;;;;;;5108651;28;20176;-41
2021/03/19 04:13:56;;;;;;;21.27;15.97;;;;;;;;;;5108527;28;20169;-41
2021/03/19 04:16:21;;;;;;;19.50;16.17;;;;;;;;;;5107929;28;20169;-42
2021/03/19 04:18:47;;;;;;;21.10;16.80;;;;;;;;;;5108818;28;20242;-41
2021/03/19 04:21:13;;;;;;;19.77;16.30;;;;;;;;;;5107130;28;20586;-46
2021/03/19 04:23:39;;;;;;;20.10;16.60;;;;;;;;;;5105770;28;20177;-42
2021/03/19 04:26:06;;;;;;;19.57;15.80;;;;;;;;;;5098408;28;20240;-42
2021/03/19 04:28:33;;;;;;;21.97;16.67;;;;;;;;;;5105114;28;20671;-41
2021/03/19 04:30:58;;;;;;;19.90;16.20;;;;;;;;;;5104609;28;21402;-42
2021/03/19 04:33:26;;;;;;;22.50;17.57;;;;;;;;;;5110210;28;20613;-42
2021/03/19 04:36:10;;;;;;;18.83;16.73;;;;;;;;;;5108141;28;20700;-42
2021/03/19 04:38:36;;;;;;;19.60;15.90;;;;;;;;;;5108269;28;20594;-42
2021/03/19 04:41:02;;;;;;;21.70;16.47;;;;;;;;;;5108344;28;20709;-42
2021/03/19 04:43:27;;;;;;;20.47;16.07;;;;;;;;;;5103993;28;20688;-42
2021/03/19 04:45:52;;;;;;;27.25;16.92;;;;;;;;;;5105674;28;20287;-42
2021/03/19 04:48:17;;;;;;;22.17;17.30;;;;;;;;;;5104192;28;20192;-41
2021/03/19 04:50:42;;;;;;;21.57;16.60;;;;;;;;;;5102147;28;20788;-41
2021/03/19 04:53:08;;;;;;;19.20;15.00;;;;;;;;;;5100787;28;20230;-41
2021/03/19 04:55:33;;;;;;;20.83;16.57;;;;;;;;;;5105323;28;20266;-40
2021/03/19 04:57:58;;;;;;;17.40;15.03;;;;;;;;;;5104616;28;20181;-41
2021/03/19 05:00:23;;;;;;;19.30;14.90;;;;;;;;;;5104362;28;20169;-41
2021/03/19 05:02:49;;;;;;;19.50;15.10;;;;;;;;;;5107282;28;20194;-42
2021/03/19 05:05:17;;;;;;;22.17;16.73;;;;;;;;;;5071090;28;20188;-41
2021/03/19 05:07:42;;;;;;;20.63;16.20;;;;;;;;;;5103972;28;20632;-42
2021/03/19 05:10:08;;;;;;;22.93;17.77;;;;;;;;;;5108446;28;20591;-42
2021/03/19 05:12:33;;;;;;;21.80;18.27;;;;;;;;;;5108900;28;20192;-41
2021/03/19 05:14:58;;;;;;;22.00;16.27;;;;;;;;;;5111033;28;20590;-42
2021/03/19 05:17:24;;;;;;;23.52;17.50;;;;;;;;;;5110256;28;20180;-42
2021/03/19 05:19:49;;;;;;;22.83;16.63;;;;;;;;;;5111175;28;20211;-42
2021/03/19 05:22:14;;;;;;;16.73;14.93;;;;;;;;;;5109654;28;20171;-42
2021/03/19 05:24:39;;;;;;;19.37;15.10;;;;;;;;;;5109207;28;20192;-42
2021/03/19 05:27:05;;;;;;;19.50;14.80;;;;;;;;;;5111244;28;20731;-41
2021/03/19 05:29:30;;;;;;;22.53;16.00;;;;;;;;;;5110306;28;20206;-41
2021/03/19 05:31:55;;;;;;;19.10;14.70;;;;;;;;;;5109095;28;20187;-42
2021/03/19 05:34:20;;;;;;;23.13;16.40;;;;;;;;;;5110014;28;20168;-42
2021/03/19 05:36:46;;;;;;;19.40;15.10;;;;;;;;;;5102237;28;20183;-41
2021/03/19 05:39:11;;;;;;;21.20;14.73;;;;;;;;;;5105759;28;20278;-41
2021/03/19 05:41:38;;;;;;;26.50;17.40;;;;;;;;;;5103308;28;20254;-41
2021/03/19 05:44:06;;;;;;;23.30;15.77;;;;;;;;;;5097564;28;20197;-42
2021/03/19 05:46:36;;;;;;;24.43;16.30;;;;;;;;;;5107247;27;20660;-41
2021/03/19 05:49:10;;;;;;;19.70;13.83;;;;;;;;;;5107203;28;20669;-41
2021/03/19 05:51:38;;;;;;;21.30;16.30;;;;;;;;;;5106655;28;20628;-42
2021/03/19 05:54:22;;;;;;;20.40;15.60;;;;;;;;;;5107234;28;20660;-41
2021/03/19 05:57:07;;;;;;;20.63;14.73;;;;;;;;;;5105817;28;20662;-41
2021/03/19 05:59:33;;;;;;;23.17;15.83;;;;;;;;;;5105764;28;20917;-41
2021/03/19 06:01:58;;;;;;;18.27;15.33;;;;;;;;;;5088431;28;21214;-42
2021/03/19 06:04:25;;;;;;;20.33;15.03;;;;;;;;;;5107071;28;20591;-42
2021/03/19 06:06:55;;;;;;;18.40;14.30;;;;;;;;;;5106292;28;20738;-41
2021/03/19 06:09:36;;;;;;;17.87;14.27;;;;;;;;;;5106959;28;20590;-42
2021/03/19 06:12:02;;;;;;;21.93;16.30;;;;;;;;;;5097664;28;20611;-40
2021/03/19 06:14:30;;;;;;;26.27;16.97;;;;;;;;;;5106792;28;20603;-41
2021/03/19 06:17:07;;;;;;;24.50;17.40;;;;;;;;;;5102081;28;20598;-45
2021/03/19 06:19:34;;;;;;;20.53;14.93;;;;;;;;;;5108079;27;20597;-43
2021/03/19 06:22:22;;;;;;;22.30;14.73;;;;;;;;;;5108543;28;20624;-42
2021/03/19 06:24:56;;;;;;;20.20;14.73;;;;;;;;;;5097460;27;20977;-42
2021/03/19 06:27:33;;;;;;;17.50;13.90;;;;;;;;;;5109073;27;20726;-42
2021/03/19 06:30:00;;;;;;;21.27;15.53;;;;;;;;;;5110005;28;20675;-42
2021/03/19 06:32:28;;;;;;;21.20;16.90;;;;;;;;;;5108622;28;20604;-42
2021/03/19 06:34:53;;;;;;;21.73;15.77;;;;;;;;;;5110059;28;20999;-42
2021/03/19 06:37:31;;;;;;;25.50;15.63;;;;;;;;;;5109932;28;20932;-42
2021/03/19 06:39:56;;;;;;;24.20;17.13;;;;;;;;;;5109951;28;20186;-42
2021/03/19 06:42:21;;;;;;;19.63;15.40;;;;;;;;;;5109846;28;20652;-41
2021/03/19 06:45:08;;;;;;;23.88;16.90;;;;;;;;;;5109905;28;20622;-42
2021/03/19 06:47:42;;;;;;;22.83;14.90;;;;;;;;;;5110293;28;20541;-42
2021/03/19 06:50:30;;;;;;;23.13;16.97;;;;;;;;;;5108911;28;20591;-42
2021/03/19 06:53:14;;;;;;;20.60;16.07;;;;;;;;;;5105858;27;20813;-42
2021/03/19 06:55:44;;;;;;;18.77;15.00;;;;;;;;;;5107078;27;20643;-41
2021/03/19 06:58:09;;;;;;;23.60;16.90;;;;;;;;;;5106347;28;20601;-41
2021/03/19 07:00:35;;;;;;;21.63;15.73;;;;;;;;;;5106864;28;20929;-42
2021/03/19 07:03:18;;;;;;;22.47;16.10;;;;;;;;;;5106230;28;20184;-43
2021/03/19 07:05:52;;;;;;;19.27;14.37;;;;;;;;;;5106468;28;20195;-41
2021/03/19 07:08:35;;;;;;;19.80;15.03;;;;;;;;;;5107033;28;20583;-41
2021/03/19 07:11:03;;;;;;;18.90;14.73;;;;;;;;;;5106521;28;21171;-42
2021/03/19 07:13:45;;;;;;;21.43;14.93;;;;;;;;;;5106800;28;20639;-41
2021/03/19 07:16:18;;;;;;;20.60;15.43;;;;;;;;;;5106796;28;20655;-41
2021/03/19 07:19:09;;;;;;;20.27;14.83;;;;;;;;;;5107021;28;20581;-41
2021/03/19 07:21:49;;;;;;;21.97;15.43;;;;;;;;;;5102856;28;20599;-41
2021/03/19 07:24:30;;;;;;;21.90;16.00;;;;;;;;;;5093738;28;21392;-42
2021/03/19 07:27:07;;;;;;;22.37;16.07;;;;;;;;;;5106499;28;20649;-42
2021/03/19 07:29:35;;;;;;;20.37;14.50;;;;;;;;;;5086799;28;20563;-41
2021/03/19 07:32:19;;;;;;;22.47;14.60;;;;;;;;;;5106019;27;20630;-41
2021/03/19 07:34:47;;;;;;;22.57;15.60;;;;;;;;;;5105456;28;20580;-42
2021/03/19 07:37:12;;;;;;;21.13;14.63;;;;;;;;;;5105308;28;20603;-41
2021/03/19 07:39:56;;;;;;;24.83;17.03;;;;;;;;;;5105147;28;20976;-41
2021/03/19 07:42:27;;;;;;;21.30;14.10;;;;;;;;;;5106621;28;20180;-41
2021/03/19 07:45:11;;;;;;;22.90;14.50;;;;;;;;;;5106705;28;20607;-42
2021/03/19 07:48:02;;;;;;;22.70;15.80;;;;;;;;;;5102973;28;20643;-42
2021/03/19 07:50:31;;;;;;;20.47;14.07;;;;;;;;;;5074028;28;20665;-42
2021/03/19 07:52:56;;;;;;;24.50;15.60;;;;;;;;;;5099312;28;20655;-42
2021/03/19 07:55:27;;;;;;;18.93;14.80;;;;;;;;;;5104546;28;20652;-42
2021/03/19 07:57:57;;;;;;;24.23;17.17;;;;;;;;;;5106247;28;20608;-42
2021/03/19 08:00:27;;;;;;;21.00;15.00;;;;;;;;;;5104888;28;20631;-42
2021/03/19 08:03:21;;;;;;;21.83;16.40;;;;;;;;;;5104682;28;20690;-41
2021/03/19 08:05:48;;;;;;;22.50;15.53;;;;;;;;;;5084180;28;20611;-42
2021/03/19 08:08:20;;;;;;;20.17;14.40;;;;;;;;;;5108477;28;20638;-42
2021/03/19 08:11:06;;;;;;;18.60;13.83;;;;;;;;;;5109987;28;20624;-42
2021/03/19 08:13:54;;;;;;;22.83;16.37;;;;;;;;;;5106364;28;20588;-42
2021/03/19 08:16:29;;;;;;;22.77;14.33;;;;;;;;;;5108551;28;20656;-42
2021/03/19 08:19:14;;;;;;;20.80;14.73;;;;;;;;;;5107654;28;21146;-42
2021/03/19 08:21:39;;;;;;;23.37;16.63;;;;;;;;;;5086233;28;20693;-42
2021/03/19 08:24:07;;;;;;;24.40;15.80;;;;;;;;;;5106930;28;20642;-42
2021/03/19 08:26:41;;;;;;;24.30;16.93;;;;;;;;;;5104506;28;20201;-42
2021/03/19 08:29:16;;;;;;;23.60;15.83;;;;;;;;;;5108325;28;20584;-41
2021/03/19 08:31:48;;;;;;;24.80;17.10;;;;;;;;;;5107873;28;20602;-41
2021/03/19 08:34:22;;;;;;;21.27;15.80;;;;;;;;;;5108715;28;20571;-41
2021/03/19 08:36:51;;;;;;;22.10;16.63;;;;;;;;;;5107658;28;20596;-41
2021/03/19 08:39:27;;;;;;;20.00;15.03;;;;;;;;;;5106328;28;20591;-41
2021/03/19 08:42:06;;;;;;;22.10;16.57;;;;;;;;;;5108476;28;20619;-40
2021/03/19 08:44:36;;;;;;;27.00;18.10;;;;;;;;;;5108444;28;20595;-40
2021/03/19 08:47:22;;;;;;;22.60;15.70;;;;;;;;;;5108307;28;20638;-41
2021/03/19 08:49:49;;;;;;;24.17;16.70;;;;;;;;;;5112037;28;20646;-41
2021/03/19 08:52:29;;;;;;;25.20;16.00;;;;;;;;;;5112483;28;20598;-42
2021/03/19 08:55:12;;;;;;;23.77;17.00;;;;;;;;;;5112045;28;20728;-41
2021/03/19 08:57:38;;;;;;;23.17;15.93;;;;;;;;;;5112310;28;20583;-41
2021/03/19 09:00:07;;;;;;;25.60;16.10;;;;;;;;;;5111843;28;20628;-41
2021/03/19 09:02:32;;;;;;;27.90;18.07;;;;;;;;;;5112327;28;20595;-41
2021/03/19 09:04:57;;;;;;;23.10;15.45;;;;;;;;;;5112086;28;20576;-42
2021/03/19 09:07:25;;;;;;;20.97;15.53;;;;;;;;;;5112196;28;20210;-41
2021/03/19 09:09:51;;;;;;;19.50;14.73;;;;;;;;;;5111460;28;20641;-42
2021/03/19 09:12:18;;;;;;;22.40;16.00;;;;;;;;;;5093686;28;20572;-42
2021/03/19 09:14:45;;;;;;;26.10;16.80;;;;;;;;;;5111424;28;20575;-42
2021/03/19 09:17:12;;;;;;;23.30;14.97;;;;;;;;;;5110955;28;20572;-42
2021/03/19 09:19:43;;;;;;;20.47;14.90;;;;;;;;;;5111563;28;20625;-42
2021/03/19 09:22:21;;;;;;;22.80;15.17;;;;;;;;;;5112076;28;21189;-42
2021/03/19 09:25:05;;;;;;;20.70;14.80;;;;;;;;;;5111247;28;21006;-43
2021/03/19 09:27:33;;;;;;;24.90;14.60;;;;;;;;;;5111870;28;20695;-42
2021/03/19 09:30:17;;;;;;;18.07;13.40;;;;;;;;;;5111333;28;20576;-42
2021/03/19 09:32:44;;;;;;;21.63;14.80;;;;;;;;;;5110095;28;20607;-43
2021/03/19 09:35:27;;;;;;;19.60;13.77;;;;;;;;;;5111175;28;20590;-42
2021/03/19 09:37:54;;;;;;;17.70;12.83;;;;;;;;;;5111354;28;20636;-41
2021/03/19 09:40:40;;;;;;;16.43;13.33;;;;;;;;;;5111326;28;20623;-42
2021/03/19 09:43:07;;;;;;;19.37;15.03;;;;;;;;;;5110992;28;20964;-41
2021/03/19 09:45:33;;;;;;;19.93;14.83;;;;;;;;;;5111506;28;20641;-42
2021/03/19 09:48:11;;;;;;;18.47;13.60;;;;;;;;;;5110794;28;20656;-42
2021/03/19 09:50:46;;;;;;;18.73;14.40;;;;;;;;;;5111294;28;21109;-42
2021/03/19 09:53:22;;;;;;;20.13;14.33;;;;;;;;;;5111674;28;20639;-42
2021/03/19 09:55:49;;;;;;;21.00;14.17;;;;;;;;;;5110797;28;21159;-42
2021/03/19 09:58:26;;;;;;;17.00;12.77;;;;;;;;;;5110958;28;20637;-42
2021/03/19 10:00:55;;;;;;;22.70;14.07;;;;;;;;;;5110650;28;20604;-42
2021/03/19 10:03:21;;;;;;;19.37;13.90;;;;;;;;;;5111005;28;20581;-42
2021/03/19 10:05:47;;;;;;;24.73;14.10;;;;;;;;;;5110451;28;20599;-42
2021/03/19 10:08:26;;;;;;;19.00;14.20;;;;;;;;;;5110752;28;20638;-42
2021/03/19 10:11:01;;;;;;;19.10;13.70;;;;;;;;;;5110567;28;20685;-42
2021/03/19 10:13:26;;;;;;;18.13;13.30;;;;;;;;;;5110877;28;20610;-42
2021/03/19 10:15:53;;;;;;;18.23;13.90;;;;;;;;;;5110445;28;20866;-42
2021/03/19 10:18:21;;;;;;;18.47;13.37;;;;;;;;;;5110716;28;20238;-43
2021/03/19 10:20:51;;;;;;;19.13;13.67;;;;;;;;;;5110869;28;21133;-41
2021/03/19 10:23:22;;;;;;;17.90;12.33;;;;;;;;;;5111400;28;20587;-41
2021/03/19 10:25:51;;;;;;;15.60;12.60;;;;;;;;;;5110097;28;20604;-41
2021/03/19 10:28:16;;;;;;;14.70;12.20;;;;;;;;;;5110525;28;21238;-42
2021/03/19 10:30:46;;;;;;;16.60;12.53;;;;;;;;;;5110210;28;20565;-42
2021/03/19 10:33:15;;;;;;;14.73;12.20;;;;;;;;;;5110403;28;20255;-41
2021/03/19 10:35:41;;;;;;;13.70;10.73;;;;;;;;;;5110102;28;20623;-42
2021/03/19 10:38:21;;;;;;;10.67;9.43;;;;;;;;;;5110328;28;20611;-41
2021/03/19 10:40:48;;;;;;;10.17;8.40;;;;;;;;;;5111185;28;20623;-41
2021/03/19 10:43:17;;;;;;;11.90;9.40;;;;;;;;;;5112787;28;20686;-42
2021/03/19 10:45:47;;;;;;;9.50;8.00;;;;;;;;;;5110296;28;20699;-42
2021/03/19 10:48:12;;;;;;;9.50;8.00;;;;;;;;;;5111457;28;21189;-42
2021/03/19 10:50:40;;;;;;;9.40;8.30;;;;;;;;;;5110577;28;20574;-42
2021/03/19 10:53:14;;;;;;;9.90;8.33;;;;;;;;;;5109591;28;20202;-41
2021/03/19 10:55:42;;;;;;;9.43;8.20;;;;;;;;;;5109360;28;20643;-41
2021/03/19 10:58:19;;;;;;;8.20;7.10;;;;;;;;;;5109563;28;20599;-42
2021/03/19 11:00:46;;;;;;;7.87;7.10;;;;;;;;;;5109744;28;20615;-42
2021/03/19 11:03:23;;;;;;;8.17;7.33;;;;;;;;;;5109527;28;20604;-41
2021/03/19 11:05:56;;;;;;;8.27;7.40;;;;;;;;;;5109925;28;20657;-42
2021/03/19 11:08:21;;;;;;;6.67;5.80;;;;;;;;;;5109830;28;20635;-42
2021/03/19 11:10:49;;;;;;;7.10;6.50;;;;;;;;;;5109313;28;20945;-42
2021/03/19 11:13:14;;;;;;;8.73;7.00;;;;;;;;;;5109947;28;20570;-42
2021/03/19 11:15:41;;;;;;;9.43;8.38;;;;;;;;;;5109581;28;20954;-41
2021/03/19 11:18:13;;;;;;;8.63;7.60;;;;;;;;;;5109780;28;20643;-42
2021/03/19 11:20:38;;;;;;;7.50;6.80;;;;;;;;;;5109453;28;20649;-42
2021/03/19 11:23:16;;;;;;;9.60;8.40;;;;;;;;;;5109274;28;20641;-42
2021/03/19 11:25:44;;;;;;;8.33;7.23;;;;;;;;;;5109475;28;20178;-42
2021/03/19 11:28:29;;;;;;;8.10;7.30;;;;;;;;;;5109287;28;20674;-42
2021/03/19 11:30:55;;;;;;;8.67;7.80;;;;;;;;;;5109279;28;20556;-42
2021/03/19 11:33:20;;;;;;;7.47;6.70;;;;;;;;;;5109616;28;20762;-42
2021/03/19 11:36:08;;;;;;;7.13;6.20;;;;;;;;;;5110681;27;20176;-42
2021/03/19 11:38:34;;;;;;;9.40;7.70;;;;;;;;;;5106557;27;20184;-42
2021/03/19 11:41:00;;;;;;;8.60;7.80;;;;;;;;;;5107637;27;20659;-40
2021/03/19 11:43:26;;;;;;;10.63;7.47;;;;;;;;;;5108228;28;20683;-40
2021/03/19 11:45:51;;;;;;;7.30;6.70;;;;;;;;;;5108901;28;21162;-44
2021/03/19 11:48:28;;;;;;;7.57;6.87;;;;;;;;;;5108945;28;20206;-41
2021/03/19 11:51:05;;;;;;;7.73;7.10;;;;;;;;;;5107347;28;20166;-42
2021/03/19 11:53:31;;;;;;;8.07;7.30;;;;;;;;;;5107454;28;20607;-42
2021/03/19 11:55:57;;;;;;;8.45;7.65;;;;;;;;;;5107192;28;21201;-43
2021/03/19 11:58:24;;;;;;;9.23;8.00;;;;;;;;;;5108238;28;20174;-42
2021/03/19 12:00:50;;;;;;;8.97;8.17;;;;;;;;;;5107801;28;21149;-42
2021/03/19 12:03:22;;;;;;;8.27;7.57;;;;;;;;;;5108682;28;20693;-42
2021/03/19 12:05:47;;;;;;;8.17;7.00;;;;;;;;;;5103099;28;20265;-43
2021/03/19 12:08:12;;;;;;;8.05;7.00;;;;;;;;;;5105765;28;20741;-42
2021/03/19 12:10:37;;;;;;;7.73;7.00;;;;;;;;;;5106104;28;20219;-42
2021/03/19 12:13:10;;;;;;;6.67;6.07;;;;;;;;;;5106479;28;20177;-43
2021/03/19 12:15:35;;;;;;;6.30;5.73;;;;;;;;;;5093712;28;20166;-42
2021/03/19 12:18:00;;;;;;;6.43;5.83;;;;;;;;;;5105609;28;20664;-42
2021/03/19 12:20:26;;;;;;;6.20;5.70;;;;;;;;;;5103223;28;20172;-42
2021/03/19 12:22:51;;;;;;;8.23;6.10;;;;;;;;;;5098875;28;20189;-42
2021/03/19 12:25:20;;;;;;;5.37;4.97;;;;;;;;;;5098395;28;20190;-42
2021/03/19 12:27:46;;;;;;;5.93;4.93;;;;;;;;;;5104115;28;20295;-43
2021/03/19 12:30:11;;;;;;;4.83;4.43;;;;;;;;;;5086473;28;20656;-42
2021/03/19 12:32:37;;;;;;;4.03;3.70;;;;;;;;;;5102474;28;20419;-42
2021/03/19 12:35:02;;;;;;;4.60;4.20;;;;;;;;;;5094157;28;20173;-42
2021/03/19 12:37:28;;;;;;;4.57;4.27;;;;;;;;;;5105886;28;20171;-42
2021/03/19 12:39:53;;;;;;;5.40;4.90;;;;;;;;;;5104504;28;20202;-41
2021/03/19 12:42:18;;;;;;;5.60;4.93;;;;;;;;;;5105481;28;20209;-41
2021/03/19 12:44:43;;;;;;;5.73;5.23;;;;;;;;;;5104097;28;20224;-41
2021/03/19 12:47:08;;;;;;;6.57;5.30;;;;;;;;;;5106159;28;20210;-48
2021/03/19 12:49:33;;;;;;;5.25;4.80;;;;;;;;;;5106328;28;20174;-42
2021/03/19 12:51:59;;;;;;;5.90;5.00;;;;;;;;;;5105596;28;20340;-42
2021/03/19 12:54:24;;;;;;;5.60;5.10;;;;;;;;;;5105262;28;20613;-43
2021/03/19 12:56:49;;;;;;;4.80;4.40;;;;;;;;;;5106313;28;20176;-42
2021/03/19 12:59:14;;;;;;;6.13;5.17;;;;;;;;;;5105891;28;20169;-42
2021/03/19 13:01:39;;;;;;;6.23;5.67;;;;;;;;;;5104681;28;20181;-42
2021/03/19 13:04:05;;;;;;;6.05;5.28;;;;;;;;;;5103521;28;20182;-42
2021/03/19 13:06:30;;;;;;;4.60;4.30;;;;;;;;;;5101287;28;20251;-42
2021/03/19 13:08:55;;;;;;;4.67;4.27;;;;;;;;;;5103362;28;20178;-42
2021/03/19 13:11:21;;;;;;;6.85;5.35;;;;;;;;;;5105382;28;20170;-42
2021/03/19 13:13:47;;;;;;;4.97;4.47;;;;;;;;;;5104761;28;20170;-42
2021/03/19 13:16:13;;;;;;;5.73;5.23;;;;;;;;;;5099014;28;20197;-42
2021/03/19 13:18:38;;;;;;;4.57;4.17;;;;;;;;;;5103170;28;20669;-49
2021/03/19 13:21:04;;;;;;;5.30;4.80;;;;;;;;;;5105068;28;20662;-42
2021/03/19 13:23:29;;;;;;;5.97;4.97;;;;;;;;;;5104636;28;20646;-41
2021/03/19 13:25:54;;;;;;;5.37;4.87;;;;;;;;;;5107078;28;20176;-42
2021/03/19 13:28:20;;;;;;;4.70;4.40;;;;;;;;;;5106774;28;21024;-42
2021/03/19 13:30:46;;;;;;;5.70;5.20;;;;;;;;;;5107726;28;20506;-41
2021/03/19 13:33:12;;;;;;;6.30;5.70;;;;;;;;;;5103697;28;20173;-42
2021/03/19 13:35:42;;;;;;;4.50;4.20;;;;;;;;;;5109527;28;20614;-41
2021/03/19 13:38:12;;;;;;;4.60;4.20;;;;;;;;;;5109196;28;20587;-42
2021/03/19 13:40:38;;;;;;;5.90;5.40;;;;;;;;;;5104218;28;21347;-42
2021/03/19 13:43:04;;;;;;;5.77;5.17;;;;;;;;;;5105747;28;20618;-41
2021/03/19 13:45:29;;;;;;;5.00;4.50;;;;;;;;;;5118966;27;20598;-41
2021/03/19 13:47:54;;;;;;;4.67;4.27;;;;;;;;;;5109313;28;20696;-43
2021/03/19 13:50:20;;;;;;;4.87;4.23;;;;;;;;;;5111401;28;20672;-41
2021/03/19 13:52:45;;;;;;;5.10;4.70;;;;;;;;;;5111439;28;20174;-42
2021/03/19 13:55:11;;;;;;;5.23;4.83;;;;;;;;;;5110795;28;20608;-41
2021/03/19 13:57:42;;;;;;;5.20;4.80;;;;;;;;;;5111235;28;20184;-41
2021/03/19 14:00:08;;;;;;;5.30;4.90;;;;;;;;;;5111172;28;20699;-41
2021/03/19 14:02:33;;;;;;;3.90;3.60;;;;;;;;;;5111234;28;20591;-42
2021/03/19 14:04:58;;;;;;;3.78;3.35;;;;;;;;;;5110539;28;20291;-42
2021/03/19 14:07:23;;;;;;;3.97;3.70;;;;;;;;;;5111090;28;20200;-42
2021/03/19 14:09:49;;;;;;;4.17;3.87;;;;;;;;;;5110647;28;20170;-43
2021/03/19 14:12:14;;;;;;;5.00;4.60;;;;;;;;;;5110786;28;20531;-41
2021/03/19 14:14:39;;;;;;;4.60;4.20;;;;;;;;;;5110774;28;20165;-41
2021/03/19 14:17:04;;;;;;;4.40;4.03;;;;;;;;;;5110169;28;20514;-44
2021/03/19 14:19:29;;;;;;;3.63;3.30;;;;;;;;;;5110640;28;20184;-43
2021/03/19 14:21:55;;;;;;;4.13;3.83;;;;;;;;;;5110653;28;20654;-43
2021/03/19 14:24:21;;;;;;;4.03;3.63;;;;;;;;;;5092046;28;20179;-42
2021/03/19 14:26:46;;;;;;;3.93;3.63;;;;;;;;;;5109506;28;20204;-42
2021/03/19 14:29:11;;;;;;;4.17;3.77;;;;;;;;;;5109973;28;20174;-42
2021/03/19 14:31:36;;;;;;;4.65;4.10;;;;;;;;;;5110883;28;20201;-42
2021/03/19 14:34:01;;;;;;;4.20;3.80;;;;;;;;;;5110674;28;20176;-52
2021/03/19 14:36:27;;;;;;;4.70;4.30;;;;;;;;;;5109654;28;20572;-42